Погода Нововасильевскна неделю

Могилёвская область, Белоруссия

24 - 30 мая
  • 24мая
    Сегодня
    +10°
    +22°
    Ясно и безоблачно
    ВремяПогодаТемператураВлажностьДавлениеВетер, м/сВероятность осадков
    00:00Ясно и безоблачно+15°C55 %756 мм4.7 м/с2 %
    03:00Ясно и безоблачно+12°C57 %756 мм4.7 м/с2 %
    06:00Ясно и безоблачно+11°C58 %757 мм4.7 м/с2 %
    09:00Ясно и безоблачно+15°C50 %758 мм5.2 м/с2 %
    12:00Ясно и безоблачно+20°C41 %758 мм5.3 м/с2 %
    15:00Ясно и безоблачно+21°C37 %758 мм4.9 м/с2 %
    18:00Ясно и безоблачно+21°C39 %757 мм4.7 м/с2 %
    21:00Ясно и безоблачно+17°C53 %757 мм3.5 м/с2 %
  • 25мая
    Суббота
    +10°
    +24°
    Ясно и безоблачно
    ВремяПогодаТемператураВлажностьДавлениеВетер, м/сВероятность осадков
    00:00Ясно и безоблачно+13°C57 %758 мм3.8 м/с2 %
    03:00Ясно и безоблачно+12°C61 %757 мм3.6 м/с2 %
    06:00Ясно и безоблачно+11°C65 %757 мм3.1 м/с2 %
    09:00Ясно и безоблачно+17°C54 %757 мм3.0 м/с2 %
    12:00Ясно и безоблачно+22°C44 %757 мм2.9 м/с2 %
    15:00Ясно и безоблачно+23°C37 %756 мм3.0 м/с2 %
    18:00Ясно и безоблачно+23°C37 %755 мм2.8 м/с2 %
    21:00Ясно и безоблачно+18°C64 %755 мм2.5 м/с2 %
  • 26мая
    Воскресенье
    +11°
    +25°
    Ясно и безоблачно
    ВремяПогодаТемператураВлажностьДавлениеВетер, м/сВероятность осадков
    00:00Ясно и безоблачно+14°C71 %755 мм2.2 м/с2 %
    03:00Небольшая облачность+11°C74 %755 мм2.8 м/с2 %
    06:00Облачно с прояснениями+12°C76 %755 мм0.4 м/с2 %
    09:00Облачно с прояснениями+18°C52 %755 мм0.3 м/с2 %
    12:00Облачно с прояснениями+23°C37 %755 мм1.7 м/с2 %
    15:00Ясно и безоблачно+24°C31 %755 мм2.3 м/с2 %
    18:00Практически безоблачно+24°C32 %754 мм2.4 м/с3 %
    21:00Практически безоблачно+18°C59 %754 мм2.4 м/с2 %
  • 27мая
    Понедельник
    +13°
    +25°
    Практически безоблачно
    ВремяПогодаТемператураВлажностьДавлениеВетер, м/сВероятность осадков
    00:00Ясно и безоблачно+14°C76 %754 мм2.7 м/с2 %
    03:00Ясно и безоблачно+12°C82 %754 мм2.2 м/с2 %
    06:00Ясно и безоблачно+13°C81 %755 мм2.5 м/с2 %
    09:00Ясно и безоблачно+20°C66 %755 мм2.3 м/с3 %
    12:00Ясно и безоблачно+24°C50 %755 мм2.8 м/с14 %
    15:00Практически безоблачно+24°C44 %755 мм1.9 м/с24 %
    18:00Практически безоблачно+25°C49 %755 мм3.0 м/с33 %
    21:00Практически безоблачно+20°C69 %755 мм3.4 м/с8 %
  • 28мая
    Вторник
    +13°
    +25°
    Ясно и безоблачно
    ВремяПогодаТемператураВлажностьДавлениеВетер, м/сВероятность осадков
    00:00Ясно и безоблачно+16°C75 %755 мм3.7 м/с2 %
    03:00Ясно и безоблачно+14°C63 %755 мм3.3 м/с2 %
    06:00Ясно и безоблачно+14°C66 %756 мм3.5 м/с2 %
    09:00Ясно и безоблачно+20°C53 %756 мм3.4 м/с2 %
    12:00Ясно и безоблачно+23°C42 %755 мм3.9 м/с2 %
    15:00Ясно и безоблачно+24°C40 %754 мм3.4 м/с6 %
    18:00Ясно и безоблачно+24°C41 %753 мм3.2 м/с7 %
    21:00Ясно и безоблачно+21°C59 %753 мм2.3 м/с4 %
Мы используем cookies
Соглашаюсь